Time;durP1;ratioP1;P1;durP2;ratioP2;P2;SDS_P1;SDS_P2;PMS_P1;PMS_P2;Temp;Humidity;BMP_temperature;BMP_pressure;BME280_temperature;BME280_humidity;BME280_pressure;Samples;Min_cycle;Max_cycle;Signal;HPM_P1;HPM_P2
2022/03/13 00:02:07;;;;;;;;;;;;;;;;;;5085560;28;20524;-69
2022/03/13 00:04:35;;;;;;;9.05;5.00;;;;;;;;;;5085726;28;19981;-69
2022/03/13 00:07:08;;;;;;;7.50;5.07;;;;;;;;;;5042335;28;20048;-69
2022/03/13 00:09:34;;;;;;;8.68;5.18;;;;;;;;;;5085931;28;20485;-69
2022/03/13 00:12:07;;;;;;;6.95;4.70;;;;;;;;;;5087694;28;20451;-69
2022/03/13 00:14:34;;;;;;;7.75;4.93;;;;;;;;;;5089230;28;20671;-69
2022/03/13 00:17:00;;;;;;;7.97;4.22;;;;;;;;;;5090225;28;20130;-69
2022/03/13 00:19:28;;;;;;;7.47;5.18;;;;;;;;;;5089875;28;20693;-69
2022/03/13 00:21:54;;;;;;;6.55;4.78;;;;;;;;;;5070153;28;20044;-68
2022/03/13 00:24:22;;;;;;;6.90;4.90;;;;;;;;;;5090259;28;20040;-68
2022/03/13 00:26:54;;;;;;;10.00;4.97;;;;;;;;;;5089265;28;20504;-68
2022/03/13 00:29:20;;;;;;;8.50;4.82;;;;;;;;;;5090286;28;20043;-68
2022/03/13 00:31:47;;;;;;;7.05;4.68;;;;;;;;;;5089514;28;20062;-68
2022/03/13 00:34:13;;;;;;;10.00;4.82;;;;;;;;;;5089604;28;20477;-68
2022/03/13 00:36:40;;;;;;;9.88;4.82;;;;;;;;;;5089856;28;20044;-68
2022/03/13 00:39:06;;;;;;;7.50;4.97;;;;;;;;;;5089668;28;20151;-68
2022/03/13 00:41:32;;;;;;;6.90;4.75;;;;;;;;;;5071270;28;20261;-68
2022/03/13 00:43:58;;;;;;;7.70;4.60;;;;;;;;;;5070988;28;20082;-68
2022/03/13 00:46:25;;;;;;;8.00;4.95;;;;;;;;;;5071273;28;20052;-68
2022/03/13 00:48:51;;;;;;;14.50;6.80;;;;;;;;;;5089728;28;20044;-68
2022/03/13 00:51:17;;;;;;;8.48;4.47;;;;;;;;;;5089725;28;20500;-68
2022/03/13 00:53:44;;;;;;;7.05;4.97;;;;;;;;;;5089570;28;20056;-69
2022/03/13 00:56:10;;;;;;;6.68;4.35;;;;;;;;;;5089041;28;20398;-68
2022/03/13 00:58:40;;;;;;;8.05;4.95;;;;;;;;;;5071110;28;20044;-68
2022/03/13 01:01:07;;;;;;;7.43;4.57;;;;;;;;;;5089384;28;20040;-68
2022/03/13 01:03:36;;;;;;;7.03;4.20;;;;;;;;;;5083920;28;20036;-68
2022/03/13 01:06:06;;;;;;;8.43;4.63;;;;;;;;;;5069225;28;20449;-69
2022/03/13 01:08:32;;;;;;;6.80;4.82;;;;;;;;;;5088801;28;20082;-69
2022/03/13 01:10:59;;;;;;;7.30;4.50;;;;;;;;;;5089057;28;20052;-69
2022/03/13 01:13:25;;;;;;;7.63;4.75;;;;;;;;;;5087217;28;20297;-69
2022/03/13 01:15:55;;;;;;;6.28;4.40;;;;;;;;;;5089674;28;20075;-69
2022/03/13 01:18:21;;;;;;;6.72;4.10;;;;;;;;;;5088366;28;20493;-69
2022/03/13 01:20:48;;;;;;;7.45;4.28;;;;;;;;;;5088927;28;20118;-69
2022/03/13 01:23:17;;;;;;;8.77;4.82;;;;;;;;;;5087913;28;20086;-69
2022/03/13 01:25:43;;;;;;;6.63;4.22;;;;;;;;;;5089266;28;20048;-69
2022/03/13 01:28:09;;;;;;;6.55;4.40;;;;;;;;;;5070108;28;20070;-69
2022/03/13 01:30:35;;;;;;;6.00;3.95;;;;;;;;;;5086493;28;20078;-69
2022/03/13 01:33:03;;;;;;;7.10;4.85;;;;;;;;;;5069532;28;20119;-69
2022/03/13 01:35:29;;;;;;;7.10;4.30;;;;;;;;;;5070686;28;20062;-69
2022/03/13 01:37:55;;;;;;;5.50;3.95;;;;;;;;;;5070245;28;20040;-69
2022/03/13 01:40:22;;;;;;;7.95;4.28;;;;;;;;;;5088288;28;20544;-69
2022/03/13 01:42:48;;;;;;;7.53;4.53;;;;;;;;;;5088262;28;20036;-69
2022/03/13 01:45:18;;;;;;;6.03;3.92;;;;;;;;;;5070812;28;20130;-69
2022/03/13 01:47:45;;;;;;;7.90;4.40;;;;;;;;;;5070342;28;20397;-69
2022/03/13 01:50:11;;;;;;;7.35;4.18;;;;;;;;;;5070232;28;20044;-68
2022/03/13 01:52:41;;;;;;;7.20;4.20;;;;;;;;;;5087857;28;20051;-69
2022/03/13 01:55:08;;;;;;;7.85;4.43;;;;;;;;;;5088696;28;20044;-68
2022/03/13 01:57:37;;;;;;;8.93;4.50;;;;;;;;;;5088078;28;20150;-69
2022/03/13 02:00:03;;;;;;;5.68;3.92;;;;;;;;;;5070146;28;20044;-69
2022/03/13 02:02:32;;;;;;;6.10;4.15;;;;;;;;;;5069558;28;20131;-69
2022/03/13 02:04:58;;;;;;;5.50;3.65;;;;;;;;;;5069049;28;20068;-69
2022/03/13 02:07:27;;;;;;;6.20;4.05;;;;;;;;;;5069676;28;20040;-69
2022/03/13 02:09:53;;;;;;;7.05;4.10;;;;;;;;;;5087953;28;20062;-69
2022/03/13 02:12:20;;;;;;;7.10;4.53;;;;;;;;;;5070022;28;20047;-69
2022/03/13 02:14:49;;;;;;;7.13;4.13;;;;;;;;;;5088802;28;20054;-69
2022/03/13 02:17:15;;;;;;;;;;;;;;;;;;5069085;28;20131;-69
2022/03/13 02:19:41;;;;;;;5.72;4.03;;;;;;;;;;5087436;28;20338;-67
2022/03/13 02:22:08;;;;;;;8.73;4.25;;;;;;;;;;5088111;28;20350;-67
2022/03/13 02:24:34;;;;;;;6.85;4.25;;;;;;;;;;5087454;28;20122;-69
2022/03/13 02:27:03;;;;;;;6.72;4.38;;;;;;;;;;5087814;28;20056;-70
2022/03/13 02:29:29;;;;;;;7.07;4.72;;;;;;;;;;5069750;28;20630;-68
2022/03/13 02:31:57;;;;;;;7.00;3.88;;;;;;;;;;5087795;28;20047;-69
2022/03/13 02:34:23;;;;;;;6.57;4.30;;;;;;;;;;5086934;28;20044;-69
2022/03/13 02:36:49;;;;;;;7.53;4.15;;;;;;;;;;5086538;28;20059;-70
2022/03/13 02:39:15;;;;;;;7.05;4.10;;;;;;;;;;5068714;28;20712;-68
2022/03/13 02:41:42;;;;;;;5.93;3.97;;;;;;;;;;5087212;28;20047;-67
2022/03/13 02:44:09;;;;;;;6.50;4.00;;;;;;;;;;5069077;28;20035;-67
2022/03/13 02:46:47;;;;;;;6.03;4.35;;;;;;;;;;5068226;28;20060;-67
2022/03/13 02:49:14;;;;;;;8.30;4.15;;;;;;;;;;5086416;28;20048;-67
2022/03/13 02:51:42;;;;;;;11.02;4.18;;;;;;;;;;5068086;28;20119;-68
2022/03/13 02:54:09;;;;;;;7.45;3.83;;;;;;;;;;5085961;28;20139;-68
2022/03/13 02:56:35;;;;;;;7.43;3.90;;;;;;;;;;5086114;28;20107;-68
2022/03/13 02:59:01;;;;;;;6.72;4.13;;;;;;;;;;5086319;28;20055;-68
2022/03/13 03:01:27;;;;;;;7.50;4.10;;;;;;;;;;5086234;28;20067;-68
2022/03/13 03:03:54;;;;;;;7.75;4.30;;;;;;;;;;5068278;28;20510;-68
2022/03/13 03:06:20;;;;;;;6.32;3.72;;;;;;;;;;5068665;28;20431;-68
2022/03/13 03:08:46;;;;;;;7.20;3.63;;;;;;;;;;5086265;28;20082;-68
2022/03/13 03:11:13;;;;;;;6.43;4.25;;;;;;;;;;5085806;28;20052;-68
2022/03/13 03:13:39;;;;;;;7.70;3.72;;;;;;;;;;5068541;28;20104;-68
2022/03/13 03:16:05;;;;;;;6.45;3.65;;;;;;;;;;5086535;28;20040;-68
2022/03/13 03:18:31;;;;;;;6.00;3.42;;;;;;;;;;5085579;28;20044;-68
2022/03/13 03:20:57;;;;;;;5.68;4.10;;;;;;;;;;5085848;28;20043;-68
2022/03/13 03:23:23;;;;;;;6.18;4.05;;;;;;;;;;5086277;28;20036;-68
2022/03/13 03:25:50;;;;;;;7.85;3.88;;;;;;;;;;5085656;28;20524;-68
2022/03/13 03:28:17;;;;;;;5.25;3.63;;;;;;;;;;5086326;28;20439;-68
2022/03/13 03:30:43;;;;;;;5.38;3.67;;;;;;;;;;5085469;28;20047;-68
2022/03/13 03:33:09;;;;;;;5.68;4.45;;;;;;;;;;5086216;28;20048;-67
2022/03/13 03:35:35;;;;;;;6.88;3.88;;;;;;;;;;5085921;28;20052;-69
2022/03/13 03:38:01;;;;;;;7.18;4.10;;;;;;;;;;5086340;28;20362;-67
2022/03/13 03:40:29;;;;;;;5.45;4.20;;;;;;;;;;5085715;28;20051;-67
2022/03/13 03:42:56;;;;;;;5.47;3.60;;;;;;;;;;5065975;28;20044;-67
2022/03/13 03:45:23;;;;;;;5.40;3.75;;;;;;;;;;5067323;28;20040;-67
2022/03/13 03:47:49;;;;;;;6.57;3.92;;;;;;;;;;5067842;28;20083;-67
2022/03/13 03:50:15;;;;;;;5.22;3.70;;;;;;;;;;5086237;28;20047;-67
2022/03/13 03:52:41;;;;;;;5.68;3.78;;;;;;;;;;5086689;28;20201;-67
2022/03/13 03:55:07;;;;;;;6.45;3.63;;;;;;;;;;5086078;28;20066;-67
2022/03/13 03:57:34;;;;;;;7.93;4.10;;;;;;;;;;5086844;28;20036;-67
2022/03/13 04:00:00;;;;;;;5.75;3.80;;;;;;;;;;5087302;28;20520;-67
2022/03/13 04:02:26;;;;;;;5.75;4.30;;;;;;;;;;5086937;28;20086;-67
2022/03/13 04:04:52;;;;;;;6.72;3.78;;;;;;;;;;5086631;28;20052;-67
2022/03/13 04:07:19;;;;;;;5.65;3.78;;;;;;;;;;5069254;28;20044;-67
2022/03/13 04:09:46;;;;;;;5.47;3.70;;;;;;;;;;5086559;28;20062;-67
2022/03/13 04:12:12;;;;;;;5.45;3.90;;;;;;;;;;5087548;28;20040;-67
2022/03/13 04:14:39;;;;;;;5.50;3.50;;;;;;;;;;5087009;28;20059;-67
2022/03/13 04:17:05;;;;;;;5.13;3.38;;;;;;;;;;5085896;28;20040;-67
2022/03/13 04:19:31;;;;;;;4.68;3.28;;;;;;;;;;5087269;28;20044;-66
2022/03/13 04:21:57;;;;;;;5.03;3.30;;;;;;;;;;5087233;28;20474;-67
2022/03/13 04:24:24;;;;;;;4.53;3.13;;;;;;;;;;5068694;28;20422;-67
2022/03/13 04:26:51;;;;;;;7.03;4.28;;;;;;;;;;5087136;28;20040;-66
2022/03/13 04:29:18;;;;;;;5.55;3.60;;;;;;;;;;5085904;28;20127;-66
2022/03/13 04:31:46;;;;;;;5.28;3.55;;;;;;;;;;5086432;28;20036;-66
2022/03/13 04:34:12;;;;;;;4.40;3.22;;;;;;;;;;5086151;28;20044;-67
2022/03/13 04:36:38;;;;;;;5.28;3.50;;;;;;;;;;5068702;28;20079;-67
2022/03/13 04:39:05;;;;;;;4.60;3.33;;;;;;;;;;5067973;28;20097;-67
2022/03/13 04:41:35;;;;;;;5.18;3.72;;;;;;;;;;5084928;28;20044;-67
2022/03/13 04:44:01;;;;;;;6.43;3.85;;;;;;;;;;5083543;28;20044;-67
2022/03/13 04:46:27;;;;;;;5.32;3.40;;;;;;;;;;5086592;28;20251;-67
2022/03/13 04:48:54;;;;;;;15.40;3.72;;;;;;;;;;5068297;28;20128;-69
2022/03/13 04:51:20;;;;;;;13.57;4.47;;;;;;;;;;5068611;28;20827;-66
2022/03/13 04:53:47;;;;;;;8.57;3.53;;;;;;;;;;5086264;28;20383;-67
2022/03/13 04:56:13;;;;;;;6.40;3.47;;;;;;;;;;5086281;28;20498;-67
2022/03/13 04:58:39;;;;;;;6.85;3.30;;;;;;;;;;5088919;28;20463;-67
2022/03/13 05:01:05;;;;;;;5.38;3.72;;;;;;;;;;5090148;28;20075;-67
2022/03/13 05:03:33;;;;;;;5.28;3.53;;;;;;;;;;5086839;28;20127;-67
2022/03/13 05:05:59;;;;;;;6.75;3.60;;;;;;;;;;5054948;28;20051;-67
2022/03/13 05:08:26;;;;;;;6.25;3.88;;;;;;;;;;5088903;28;20040;-67
2022/03/13 05:10:52;;;;;;;4.35;3.33;;;;;;;;;;5089595;28;20050;-67
2022/03/13 05:13:19;;;;;;;16.05;3.78;;;;;;;;;;5071653;28;20044;-67
2022/03/13 05:15:46;;;;;;;5.85;3.42;;;;;;;;;;5089618;28;20082;-67
2022/03/13 05:18:12;;;;;;;6.63;3.20;;;;;;;;;;5089875;28;20044;-67
2022/03/13 05:20:39;;;;;;;6.18;3.78;;;;;;;;;;5070713;28;20040;-67
2022/03/13 05:23:07;;;;;;;6.88;4.07;;;;;;;;;;5089606;28;20128;-67
2022/03/13 05:25:34;;;;;;;12.05;4.30;;;;;;;;;;5068760;28;20501;-67
2022/03/13 05:28:00;;;;;;;6.88;3.78;;;;;;;;;;5089075;28;20332;-67
2022/03/13 05:30:27;;;;;;;5.15;3.35;;;;;;;;;;5089053;28;20130;-68
2022/03/13 05:32:53;;;;;;;7.68;3.80;;;;;;;;;;5088293;28;20047;-68
2022/03/13 05:35:19;;;;;;;5.70;4.15;;;;;;;;;;5088617;28;20500;-67
2022/03/13 05:37:46;;;;;;;4.55;3.45;;;;;;;;;;5089415;28;20083;-67
2022/03/13 05:40:13;;;;;;;5.15;3.47;;;;;;;;;;5070661;28;20048;-67
2022/03/13 05:42:40;;;;;;;6.45;3.30;;;;;;;;;;5088985;28;20496;-67
2022/03/13 05:45:06;;;;;;;6.10;3.53;;;;;;;;;;5070502;28;20256;-67
2022/03/13 05:47:32;;;;;;;6.68;4.03;;;;;;;;;;5088914;28;20083;-68
2022/03/13 05:50:00;;;;;;;9.32;3.65;;;;;;;;;;5089273;28;20369;-68
2022/03/13 05:52:26;;;;;;;5.35;3.30;;;;;;;;;;5088930;28;20060;-67
2022/03/13 05:54:53;;;;;;;6.22;3.65;;;;;;;;;;5070217;28;20048;-67
2022/03/13 05:57:19;;;;;;;6.03;3.75;;;;;;;;;;5088550;28;20042;-67
2022/03/13 05:59:45;;;;;;;5.97;3.50;;;;;;;;;;5089085;28;20079;-68
2022/03/13 06:02:11;;;;;;;9.13;3.75;;;;;;;;;;5071496;28;20040;-68
2022/03/13 06:04:37;;;;;;;5.53;3.63;;;;;;;;;;5088846;28;20123;-67
2022/03/13 06:07:06;;;;;;;6.38;3.60;;;;;;;;;;5071463;28;20151;-68
2022/03/13 06:09:32;;;;;;;;;;;;;;;;;;5089175;28;20052;-67
2022/03/13 06:11:59;;;;;;;4.68;2.95;;;;;;;;;;5089624;28;19935;-68
2022/03/13 06:14:25;;;;;;;5.35;3.17;;;;;;;;;;5088308;28;20383;-67
2022/03/13 06:16:51;;;;;;;6.10;3.40;;;;;;;;;;5070139;28;20122;-68
2022/03/13 06:19:17;;;;;;;5.18;3.33;;;;;;;;;;5089270;28;20055;-68
2022/03/13 06:21:47;;;;;;;7.32;3.70;;;;;;;;;;5088207;28;20040;-68
2022/03/13 06:24:13;;;;;;;7.47;3.13;;;;;;;;;;5089229;28;20119;-67
2022/03/13 06:26:39;;;;;;;4.30;3.10;;;;;;;;;;5088263;28;20494;-68
2022/03/13 06:29:05;;;;;;;5.20;3.65;;;;;;;;;;5070073;28;20467;-68
2022/03/13 06:31:31;;;;;;;5.07;3.28;;;;;;;;;;5088279;28;20079;-68
2022/03/13 06:33:57;;;;;;;5.15;3.53;;;;;;;;;;5088488;28;20090;-68
2022/03/13 06:36:23;;;;;;;4.80;3.22;;;;;;;;;;5070054;28;20055;-68
2022/03/13 06:38:50;;;;;;;6.57;3.47;;;;;;;;;;5088480;28;20089;-68
2022/03/13 06:41:18;;;;;;;9.52;3.50;;;;;;;;;;5088539;28;20036;-68
2022/03/13 06:43:44;;;;;;;4.35;2.65;;;;;;;;;;5088976;28;20443;-68
2022/03/13 06:46:10;;;;;;;5.25;3.40;;;;;;;;;;5070307;28;20036;-69
2022/03/13 06:48:36;;;;;;;5.05;3.20;;;;;;;;;;5087338;28;20652;-70
2022/03/13 06:51:02;;;;;;;4.63;3.08;;;;;;;;;;5055362;28;20123;-70
2022/03/13 06:53:29;;;;;;;4.72;2.67;;;;;;;;;;5088357;28;20135;-70
2022/03/13 06:55:55;;;;;;;5.20;2.90;;;;;;;;;;5088469;28;20036;-70
2022/03/13 06:58:21;;;;;;;4.47;3.15;;;;;;;;;;5068822;28;20131;-69
2022/03/13 07:00:51;;;;;;;5.10;3.25;;;;;;;;;;5088024;28;20059;-71
2022/03/13 07:03:17;;;;;;;9.18;2.95;;;;;;;;;;5070089;28;20048;-73
2022/03/13 07:05:43;;;;;;;8.48;3.55;;;;;;;;;;5068710;28;20051;-68
2022/03/13 07:08:09;;;;;;;15.07;3.55;;;;;;;;;;5088289;28;20120;-68
2022/03/13 07:10:35;;;;;;;9.75;3.30;;;;;;;;;;5087669;28;20150;-68
2022/03/13 07:13:01;;;;;;;4.90;3.05;;;;;;;;;;5087634;28;20481;-68
2022/03/13 07:15:28;;;;;;;5.90;3.63;;;;;;;;;;5087823;28;20131;-68
2022/03/13 07:17:54;;;;;;;6.45;3.65;;;;;;;;;;5069358;28;20100;-67
2022/03/13 07:20:20;;;;;;;6.35;3.42;;;;;;;;;;5087416;28;20036;-68
2022/03/13 07:22:46;;;;;;;4.32;2.72;;;;;;;;;;5087671;28;20044;-69
2022/03/13 07:25:16;;;;;;;5.45;3.70;;;;;;;;;;5069854;28;20116;-69
2022/03/13 07:27:43;;;;;;;7.65;3.28;;;;;;;;;;5086076;28;20044;-68
2022/03/13 07:30:12;;;;;;;4.75;3.28;;;;;;;;;;5067331;28;20394;-68
2022/03/13 07:32:40;;;;;;;5.65;3.08;;;;;;;;;;5087008;28;20048;-68
2022/03/13 07:35:06;;;;;;;7.75;3.60;;;;;;;;;;5087345;28;20139;-68
2022/03/13 07:37:32;;;;;;;7.05;3.50;;;;;;;;;;5087500;28;20043;-68
2022/03/13 07:39:59;;;;;;;10.82;3.60;;;;;;;;;;5069121;28;20143;-68
2022/03/13 07:42:25;;;;;;;6.97;3.40;;;;;;;;;;5069110;28;20036;-68
2022/03/13 07:44:51;;;;;;;5.68;3.40;;;;;;;;;;5087726;28;20506;-68
2022/03/13 07:47:17;;;;;;;5.97;3.22;;;;;;;;;;5087553;28;20032;-67
2022/03/13 07:49:43;;;;;;;5.72;3.50;;;;;;;;;;5087530;28;20050;-67
2022/03/13 07:52:09;;;;;;;8.63;3.05;;;;;;;;;;5087592;28;20051;-68
2022/03/13 07:54:35;;;;;;;5.80;3.30;;;;;;;;;;5049364;28;20500;-67
2022/03/13 07:57:01;;;;;;;7.72;3.50;;;;;;;;;;5069400;28;20048;-67
2022/03/13 07:59:27;;;;;;;4.03;2.83;;;;;;;;;;5087606;28;20047;-68
2022/03/13 08:01:53;;;;;;;5.68;3.28;;;;;;;;;;5068922;28;20486;-68
2022/03/13 08:04:19;;;;;;;5.85;3.25;;;;;;;;;;5086982;28;20040;-67
2022/03/13 08:06:45;;;;;;;4.50;3.15;;;;;;;;;;5087184;28;20071;-67
2022/03/13 08:09:11;;;;;;;4.63;3.10;;;;;;;;;;5068592;28;20131;-67
2022/03/13 08:11:38;;;;;;;6.90;3.28;;;;;;;;;;5068261;28;20470;-68
2022/03/13 08:14:05;;;;;;;4.32;2.75;;;;;;;;;;5050769;28;20448;-69
2022/03/13 08:16:31;;;;;;;4.90;3.13;;;;;;;;;;5068645;28;20036;-68
2022/03/13 08:18:58;;;;;;;5.22;3.38;;;;;;;;;;5086618;28;20036;-68
2022/03/13 08:21:24;;;;;;;15.63;3.60;;;;;;;;;;5067626;28;20422;-69
2022/03/13 08:23:50;;;;;;;4.30;2.88;;;;;;;;;;5086814;28;20397;-69
2022/03/13 08:26:16;;;;;;;7.63;3.08;;;;;;;;;;5086541;28;20474;-70
2022/03/13 08:28:42;;;;;;;8.27;3.38;;;;;;;;;;5087180;28;20460;-69
2022/03/13 08:31:08;;;;;;;10.13;3.55;;;;;;;;;;5050345;28;20048;-70
2022/03/13 08:33:35;;;;;;;5.00;3.05;;;;;;;;;;5070304;28;20056;-70
2022/03/13 08:36:01;;;;;;;7.43;3.58;;;;;;;;;;5070535;28;20131;-69
2022/03/13 08:38:28;;;;;;;5.00;3.45;;;;;;;;;;5055973;28;20136;-70
2022/03/13 08:40:54;;;;;;;6.00;3.33;;;;;;;;;;5057270;28;20048;-69
2022/03/13 08:43:20;;;;;;;5.68;3.35;;;;;;;;;;5091328;28;20040;-70
2022/03/13 08:45:47;;;;;;;6.50;3.15;;;;;;;;;;5091328;28;20166;-68
2022/03/13 08:48:13;;;;;;;5.72;3.45;;;;;;;;;;5072797;28;20477;-69
2022/03/13 08:50:39;;;;;;;4.50;3.10;;;;;;;;;;5091141;28;20055;-68
2022/03/13 08:53:06;;;;;;;4.43;2.85;;;;;;;;;;5090720;28;20036;-69
2022/03/13 08:55:32;;;;;;;6.72;3.70;;;;;;;;;;5071700;28;20508;-68
2022/03/13 08:57:58;;;;;;;4.60;2.85;;;;;;;;;;5053887;28;20044;-69
2022/03/13 09:00:25;;;;;;;8.20;3.30;;;;;;;;;;5090613;28;20044;-70
2022/03/13 09:02:52;;;;;;;5.65;3.45;;;;;;;;;;5089852;28;20036;-69
2022/03/13 09:05:19;;;;;;;4.53;2.90;;;;;;;;;;5071952;28;20533;-70
2022/03/13 09:07:45;;;;;;;6.80;2.80;;;;;;;;;;5071389;28;20052;-70
2022/03/13 09:10:11;;;;;;;5.18;2.88;;;;;;;;;;5089684;28;20406;-70
2022/03/13 09:12:38;;;;;;;5.07;2.92;;;;;;;;;;5089935;28;20130;-70
2022/03/13 09:15:05;;;;;;;4.50;3.30;;;;;;;;;;5070004;28;20036;-70
2022/03/13 09:17:31;;;;;;;5.13;3.20;;;;;;;;;;5089780;28;20162;-70
2022/03/13 09:19:58;;;;;;;4.38;3.03;;;;;;;;;;5090484;28;20112;-69
2022/03/13 09:22:30;;;;;;;6.65;3.58;;;;;;;;;;5089840;28;20040;-70
2022/03/13 09:24:57;;;;;;;4.78;3.30;;;;;;;;;;5089887;28;20055;-69
2022/03/13 09:27:24;;;;;;;7.50;3.22;;;;;;;;;;5087738;28;20047;-69
2022/03/13 09:29:50;;;;;;;4.40;2.90;;;;;;;;;;5090003;28;20054;-69
2022/03/13 09:32:16;;;;;;;4.13;2.83;;;;;;;;;;5090090;28;20044;-70
2022/03/13 09:34:42;;;;;;;4.35;2.92;;;;;;;;;;5072325;28;20063;-70
2022/03/13 09:37:09;;;;;;;5.60;3.65;;;;;;;;;;5089387;28;20481;-69
2022/03/13 09:39:36;;;;;;;4.03;2.72;;;;;;;;;;5089320;28;20442;-70
2022/03/13 09:42:02;;;;;;;5.35;3.38;;;;;;;;;;5072305;28;20469;-69
2022/03/13 09:44:29;;;;;;;5.10;3.40;;;;;;;;;;5087525;28;20043;-70
2022/03/13 09:46:55;;;;;;;4.70;3.17;;;;;;;;;;5088647;28;20032;-67
2022/03/13 09:49:21;;;;;;;6.82;3.47;;;;;;;;;;5087920;28;20048;-69
2022/03/13 09:51:47;;;;;;;5.43;3.53;;;;;;;;;;5089344;28;20129;-68
2022/03/13 09:54:13;;;;;;;6.82;4.10;;;;;;;;;;5090376;28;20177;-69
2022/03/13 09:56:40;;;;;;;6.65;3.78;;;;;;;;;;5089784;28;20509;-68
2022/03/13 09:59:07;;;;;;;5.68;3.92;;;;;;;;;;5089658;28;20048;-68
2022/03/13 10:01:34;;;;;;;6.88;4.30;;;;;;;;;;5089765;28;20088;-68
2022/03/13 10:04:00;;;;;;;7.72;5.18;;;;;;;;;;5070742;28;20055;-68
2022/03/13 10:06:26;;;;;;;9.73;6.10;;;;;;;;;;5089717;28;20379;-68
2022/03/13 10:08:52;;;;;;;8.98;6.07;;;;;;;;;;5089163;28;20043;-68
2022/03/13 10:11:34;;;;;;;11.85;7.22;;;;;;;;;;5070960;28;20169;-68
2022/03/13 10:14:07;;;;;;;12.40;7.80;;;;;;;;;;5071047;28;20420;-67
2022/03/13 10:16:37;;;;;;;12.90;7.95;;;;;;;;;;5082746;28;20494;-68
2022/03/13 10:19:16;;;;;;;14.10;8.93;;;;;;;;;;5088698;28;20190;-68
2022/03/13 10:22:12;;;;;;;18.33;10.48;;;;;;;;;;5064501;28;20043;-69
2022/03/13 10:24:40;;;;;;;16.98;10.85;;;;;;;;;;5053136;28;20048;-69
2022/03/13 10:27:10;;;;;;;16.30;10.73;;;;;;;;;;5089610;28;20090;-69
2022/03/13 10:29:36;;;;;;;19.27;12.48;;;;;;;;;;5088588;28;20079;-70
2022/03/13 10:32:03;;;;;;;18.13;11.52;;;;;;;;;;5071535;28;20441;-69
2022/03/13 10:34:29;;;;;;;20.77;13.27;;;;;;;;;;5088839;28;20060;-70
2022/03/13 10:36:55;;;;;;;22.58;13.77;;;;;;;;;;5088454;28;20533;-69
2022/03/13 10:39:21;;;;;;;22.20;13.77;;;;;;;;;;5089443;28;20059;-69
2022/03/13 10:41:53;;;;;;;22.92;14.05;;;;;;;;;;5088557;28;20059;-68
2022/03/13 10:44:22;;;;;;;22.08;13.23;;;;;;;;;;5089331;28;20036;-68
2022/03/13 10:47:08;;;;;;;23.75;15.90;;;;;;;;;;5088587;28;20044;-68
2022/03/13 10:49:38;;;;;;;29.00;18.58;;;;;;;;;;5089347;28;20131;-68
2022/03/13 10:52:16;;;;;;;30.40;19.33;;;;;;;;;;5070758;28;20052;-68
2022/03/13 10:54:46;;;;;;;31.17;20.00;;;;;;;;;;5086059;28;20402;-69
2022/03/13 10:57:12;;;;;;;;;;;;;;;;;;5063438;28;20048;-69
2022/03/13 10:59:40;;;;;;;32.90;21.08;;;;;;;;;;5066965;28;19920;-68
2022/03/13 11:02:22;;;;;;;35.13;24.03;;;;;;;;;;5069256;28;20497;-69
2022/03/13 11:04:51;;;;;;;38.67;23.00;;;;;;;;;;5085968;28;20143;-69
2022/03/13 11:07:18;;;;;;;40.38;25.33;;;;;;;;;;5087798;28;20516;-69
2022/03/13 11:09:44;;;;;;;41.40;25.40;;;;;;;;;;5086799;28;20047;-67
2022/03/13 11:12:17;;;;;;;37.90;25.45;;;;;;;;;;5086896;28;20074;-67
2022/03/13 11:14:46;;;;;;;40.55;26.67;;;;;;;;;;5087969;28;20115;-66
2022/03/13 11:17:14;;;;;;;38.63;26.30;;;;;;;;;;5070081;28;20143;-66
2022/03/13 11:19:40;;;;;;;36.90;25.40;;;;;;;;;;5084343;28;20413;-67
2022/03/13 11:22:08;;;;;;;40.70;26.90;;;;;;;;;;5087095;28;20076;-66
2022/03/13 11:24:36;;;;;;;39.40;26.02;;;;;;;;;;5068891;28;20044;-68
2022/03/13 11:27:04;;;;;;;42.63;27.38;;;;;;;;;;5087315;28;20040;-68
2022/03/13 11:29:46;;;;;;;40.78;26.70;;;;;;;;;;5052527;28;20059;-67
2022/03/13 11:32:28;;;;;;;38.92;25.60;;;;;;;;;;5087577;28;20080;-67
2022/03/13 11:35:18;;;;;;;41.58;27.88;;;;;;;;;;5086479;28;20052;-68
2022/03/13 11:37:44;;;;;;;41.67;26.25;;;;;;;;;;5084138;28;20044;-67
2022/03/13 11:40:12;;;;;;;45.55;26.52;;;;;;;;;;5069554;28;20058;-67
2022/03/13 11:42:48;;;;;;;46.05;25.95;;;;;;;;;;5087067;28;20410;-68
2022/03/13 11:45:27;;;;;;;37.72;24.65;;;;;;;;;;5087828;28;20115;-67
2022/03/13 11:47:53;;;;;;;38.67;25.08;;;;;;;;;;5086055;28;20557;-72
2022/03/13 11:50:20;;;;;;;44.05;25.13;;;;;;;;;;5050966;28;20079;-67
2022/03/13 11:52:46;;;;;;;39.92;24.65;;;;;;;;;;5068871;28;20063;-67
2022/03/13 11:55:13;;;;;;;42.55;23.92;;;;;;;;;;5087520;28;20044;-67
2022/03/13 11:57:43;;;;;;;36.08;23.75;;;;;;;;;;5086478;28;20047;-67
2022/03/13 12:00:12;;;;;;;37.72;22.98;;;;;;;;;;5068698;28;20036;-67
2022/03/13 12:02:41;;;;;;;38.08;23.73;;;;;;;;;;5086491;28;20078;-67
2022/03/13 12:05:26;;;;;;;39.00;21.90;;;;;;;;;;5087209;28;20048;-67
2022/03/13 12:08:04;;;;;;;34.30;21.50;;;;;;;;;;5051327;28;20347;-67
2022/03/13 12:10:31;;;;;;;32.80;21.30;;;;;;;;;;5086051;28;20051;-68
2022/03/13 12:13:03;;;;;;;33.47;21.80;;;;;;;;;;5086440;28;20087;-67
2022/03/13 12:15:29;;;;;;;35.10;21.90;;;;;;;;;;5087044;28;20511;-67
2022/03/13 12:17:57;;;;;;;31.80;20.33;;;;;;;;;;5086657;28;20102;-67
2022/03/13 12:20:24;;;;;;;32.45;21.23;;;;;;;;;;5068031;28;20047;-66
2022/03/13 12:22:57;;;;;;;32.58;21.38;;;;;;;;;;5068020;28;20040;-67
2022/03/13 12:25:27;;;;;;;30.67;20.08;;;;;;;;;;5086568;28;20390;-67
2022/03/13 12:27:57;;;;;;;28.88;20.23;;;;;;;;;;5086498;28;20042;-66
2022/03/13 12:30:34;;;;;;;33.13;19.77;;;;;;;;;;5086711;28;20128;-66
2022/03/13 12:33:04;;;;;;;29.60;19.05;;;;;;;;;;5084711;28;20055;-70
2022/03/13 12:35:31;;;;;;;28.65;17.73;;;;;;;;;;5085857;28;20091;-69
2022/03/13 12:38:00;;;;;;;28.35;17.52;;;;;;;;;;5067665;28;20093;-68
2022/03/13 12:40:27;;;;;;;43.88;17.70;;;;;;;;;;5086861;28;20052;-67
2022/03/13 12:42:54;;;;;;;28.52;17.60;;;;;;;;;;5086793;28;20040;-67
2022/03/13 12:45:21;;;;;;;24.48;15.93;;;;;;;;;;5085400;28;20044;-67
2022/03/13 12:47:49;;;;;;;50.30;16.90;;;;;;;;;;5086497;28;20046;-67
2022/03/13 12:50:18;;;;;;;25.23;15.25;;;;;;;;;;5085685;28;20072;-67
2022/03/13 12:52:53;;;;;;;24.58;15.00;;;;;;;;;;5083836;28;20052;-67
2022/03/13 12:55:20;;;;;;;23.40;14.90;;;;;;;;;;5083136;28;20054;-68
2022/03/13 12:57:50;;;;;;;24.40;14.85;;;;;;;;;;5085688;28;20494;-68
2022/03/13 13:00:17;;;;;;;25.77;14.68;;;;;;;;;;5085905;28;20044;-67
2022/03/13 13:02:43;;;;;;;21.75;14.13;;;;;;;;;;5086205;28;20040;-67
2022/03/13 13:05:13;;;;;;;21.38;13.85;;;;;;;;;;5085899;28;20101;-67
2022/03/13 13:07:39;;;;;;;;;;;;;;;;;;5086841;28;20101;-67
2022/03/13 13:10:09;;;;;;;20.33;13.23;;;;;;;;;;5085195;28;19920;-67
2022/03/13 13:12:37;;;;;;;21.17;12.65;;;;;;;;;;5085475;28;20040;-68
2022/03/13 13:15:08;;;;;;;19.80;12.98;;;;;;;;;;5067647;28;20044;-67
2022/03/13 13:17:34;;;;;;;20.92;13.23;;;;;;;;;;5085378;28;20131;-67
2022/03/13 13:20:01;;;;;;;20.02;11.95;;;;;;;;;;5087936;28;20051;-67
2022/03/13 13:22:30;;;;;;;22.25;13.80;;;;;;;;;;5089308;28;20404;-67
2022/03/13 13:25:01;;;;;;;18.65;12.65;;;;;;;;;;5089083;28;20055;-67
2022/03/13 13:27:34;;;;;;;20.38;12.48;;;;;;;;;;5088937;28;20479;-67
2022/03/13 13:30:14;;;;;;;29.13;13.30;;;;;;;;;;5088613;28;20109;-67
2022/03/13 13:32:48;;;;;;;20.77;12.38;;;;;;;;;;5070916;28;20387;-69
2022/03/13 13:35:21;;;;;;;23.13;12.27;;;;;;;;;;5087826;28;20131;-68
2022/03/13 13:37:57;;;;;;;21.13;11.95;;;;;;;;;;5086983;28;20123;-67
2022/03/13 13:40:27;;;;;;;20.95;12.48;;;;;;;;;;5089925;28;20044;-69
2022/03/13 13:42:53;;;;;;;17.52;11.70;;;;;;;;;;5069904;28;20047;-69
2022/03/13 13:45:22;;;;;;;19.13;12.20;;;;;;;;;;5088062;28;20040;-68
2022/03/13 13:47:49;;;;;;;27.33;12.18;;;;;;;;;;5088869;28;20089;-68
2022/03/13 13:50:20;;;;;;;18.27;11.40;;;;;;;;;;5088902;28;20043;-67
2022/03/13 13:52:59;;;;;;;19.98;11.60;;;;;;;;;;5088582;28;20048;-68
2022/03/13 13:55:26;;;;;;;18.45;11.73;;;;;;;;;;5088675;28;20505;-67
2022/03/13 13:58:11;;;;;;;14.95;10.07;;;;;;;;;;5088446;28;21457;-68
2022/03/13 14:00:39;;;;;;;21.60;11.25;;;;;;;;;;5085630;28;20051;-70
2022/03/13 14:03:05;;;;;;;17.92;11.05;;;;;;;;;;5087915;28;20083;-69
2022/03/13 14:05:34;;;;;;;15.73;10.68;;;;;;;;;;5084166;28;20262;-67
2022/03/13 14:08:00;;;;;;;15.23;9.73;;;;;;;;;;5088733;28;20061;-67
2022/03/13 14:10:26;;;;;;;18.35;11.52;;;;;;;;;;5087351;28;20052;-68
2022/03/13 14:12:52;;;;;;;17.48;10.55;;;;;;;;;;5088640;28;20043;-68
2022/03/13 14:15:20;;;;;;;16.35;10.32;;;;;;;;;;5070070;28;20119;-68
2022/03/13 14:17:46;;;;;;;15.52;9.52;;;;;;;;;;5087228;28;20119;-67
2022/03/13 14:20:13;;;;;;;14.52;9.43;;;;;;;;;;5087929;28;20051;-68
2022/03/13 14:22:41;;;;;;;14.88;9.57;;;;;;;;;;5088084;28;20043;-68
2022/03/13 14:25:10;;;;;;;13.38;9.25;;;;;;;;;;5070009;28;20383;-68
2022/03/13 14:27:37;;;;;;;14.95;9.52;;;;;;;;;;5086826;28;20452;-68
2022/03/13 14:30:05;;;;;;;14.95;9.43;;;;;;;;;;5087426;28;20431;-68
2022/03/13 14:32:32;;;;;;;12.40;8.40;;;;;;;;;;5069716;28;20044;-68
2022/03/13 14:34:58;;;;;;;14.20;9.55;;;;;;;;;;5068946;28;20271;-69
2022/03/13 14:37:24;;;;;;;14.63;8.88;;;;;;;;;;5088750;28;21480;-67
2022/03/13 14:39:51;;;;;;;13.07;8.60;;;;;;;;;;5087426;28;20119;-69